• Join FlightAware (Why Join?)
  • Login
  • US Flag 
04:27AM EDT


 

Airport Tracker/Info


-or-


 

Live Flight TrackerFlight Track Log ✈ CONN400 ✈ 04-Aug-2014 ✈ KSFB - KSFB

Flight Track Log - Related Links

Times and Time Zones

All times are in EDT time to prevent confusion due to time zone crossing. See the CONN400 flight status page for this flight to view local times or setup timezone preferences in your user account.

Time Position Orientation Groundspeed Altitude Reporting Facility
EDT Latitude Longitude Course Direction KTS MPH feet Rate Location/Type
09:29PM 28.8667 -81.2833 139° Southeast 152 175 3,100  Level Orlando TRACON
09:30PM 28.8667 -81.2333 90° East 146 168 2,900 -120 Descending Orlando TRACON
09:31PM 28.8500 -81.1833 111° Southeast 125 144 2,900 -300 Level Orlando TRACON
09:32PM 28.8500 -81.1500 90° East 133 153 2,300 -600 Descending Orlando TRACON
09:33PM 28.8333 -81.1167 120° Southeast 134 154 1,700 -480 Descending Orlando TRACON
09:34PM 28.7770 -81.2349 139° Southeast  Level Estimated
09:34PM 28.8167 -81.0833 120° Southeast 128 147 1,500  Level Orlando TRACON
09:35PM 28.7833 -81.1000 204° Southwest 110 127 1,500 -120 Level Orlando TRACON
09:36PM 28.7833 -81.1500 270° West 112 129 1,300 -420 Descending Orlando TRACON
09:37PM 28.7833 -81.1833 270° West 110 127 700 -120 Descending Orlando TRACON
09:39PM 28.8000 -81.2500 286° West 112 129 900 180 Climbing Orlando TRACON
09:40PM 28.8000 -81.2667 270° West 102 117 1,400 540 Climbing Orlando TRACON
09:42PM 28.8500 -81.3167 319° Northwest 137 158 2,600 480 Climbing Orlando TRACON
09:43PM 28.8667 -81.2833 60° Northeast 127 146 3,000 180 Climbing Orlando TRACON
09:44PM 28.8667 -81.2333 90° East 148 170 3,000  Level Orlando TRACON
09:45PM 28.8667 -81.2000 90° East 140 161 3,000  Level Orlando TRACON
09:46PM 28.8667 -81.1500 90° East 139 160 3,000  Level Orlando TRACON
09:47PM 28.8667 -81.1000 90° East 141 162 3,000 -420 Level Orlando TRACON
09:48PM 28.8667 -81.0500 90° East 141 162 2,200 -540 Descending Orlando TRACON
09:49PM 28.8667 -81.0167 90° East 126 145 1,900 -120 Descending Orlando TRACON
09:50PM 28.8500 -81.0000 139° Southeast 116 133 2,000 -120 Climbing Orlando TRACON
09:51PM 28.8167 -81.0000 180° South 123 142 1,700 -240 Descending Orlando TRACON
09:52PM 28.7833 -81.0167 204° Southwest 130 150 1,600  Descending Orlando TRACON
09:53PM 28.7833 -81.0500 270° West 116 133 1,700  Climbing Orlando TRACON
09:54PM 28.7833 -81.0833 270° West 104 120 1,600 -60 Descending Orlando TRACON
09:55PM 28.7833 -81.1167 270° West 104 120 1,600 -180 Level Orlando TRACON
09:56PM 28.7833 -81.1500 270° West 99 114 1,300 -420 Descending Orlando TRACON
09:57PM 28.7833 -81.1833 270° West 92 106 800 -420 Descending Orlando TRACON
09:59PM 28.7733 -81.2134 249° West  Level FlightAware Approximate
10:06PM 28.7667 -81.2333 242° Southwest  Level FlightAware Approximate
10:07PM 28.7770 -81.2349 325° Northwest  Level Estimated
10:08PM 28.7770 -81.2349 322° Northwest  Level Estimated
10:09PM 28.7770 -81.2349 322° Northwest  Level Estimated
10:10PM 28.7770 -81.2349 322° Northwest  Level Estimated
10:11PM 28.7770 -81.2349 322° Northwest  Level Estimated
10:12PM 28.7770 -81.2349 319° Northwest  Level Estimated
10:13PM 28.7770 -81.2349 320° Northwest  Level Estimated